sensor_id;sensor_type;location;lat;lon;timestamp;P1;durP1;ratioP1;P2;durP2;ratioP2
19509;SDS011;9896;42.486;26.506;2024-02-04T00:02:07;7.63;;;5.17;;
19509;SDS011;9896;42.486;26.506;2024-02-04T00:04:34;9.43;;;5.57;;
19509;SDS011;9896;42.486;26.506;2024-02-04T00:07:01;14.93;;;4.63;;
19509;SDS011;9896;42.486;26.506;2024-02-04T00:09:26;8.73;;;6.17;;
19509;SDS011;9896;42.486;26.506;2024-02-04T00:11:55;10.53;;;5.80;;
19509;SDS011;9896;42.486;26.506;2024-02-04T00:14:20;9.50;;;5.33;;
19509;SDS011;9896;42.486;26.506;2024-02-04T00:16:47;8.27;;;4.57;;
19509;SDS011;9896;42.486;26.506;2024-02-04T00:19:13;7.57;;;4.23;;
19509;SDS011;9896;42.486;26.506;2024-02-04T00:21:38;6.37;;;4.93;;
19509;SDS011;9896;42.486;26.506;2024-02-04T00:24:04;5.33;;;4.10;;
19509;SDS011;9896;42.486;26.506;2024-02-04T00:26:29;8.60;;;6.00;;
19509;SDS011;9896;42.486;26.506;2024-02-04T00:28:55;8.37;;;3.33;;
19509;SDS011;9896;42.486;26.506;2024-02-04T00:31:21;8.50;;;3.43;;
19509;SDS011;9896;42.486;26.506;2024-02-04T00:33:46;8.17;;;4.67;;
19509;SDS011;9896;42.486;26.506;2024-02-04T00:36:12;7.60;;;4.33;;
19509;SDS011;9896;42.486;26.506;2024-02-04T00:38:37;5.87;;;4.20;;
19509;SDS011;9896;42.486;26.506;2024-02-04T00:41:03;4.83;;;3.27;;
19509;SDS011;9896;42.486;26.506;2024-02-04T00:43:30;10.13;;;3.53;;
19509;SDS011;9896;42.486;26.506;2024-02-04T00:45:56;6.70;;;4.77;;
19509;SDS011;9896;42.486;26.506;2024-02-04T00:48:21;4.20;;;3.53;;
19509;SDS011;9896;42.486;26.506;2024-02-04T00:50:47;4.60;;;3.50;;
19509;SDS011;9896;42.486;26.506;2024-02-04T00:53:13;3.70;;;3.20;;
19509;SDS011;9896;42.486;26.506;2024-02-04T00:55:38;6.87;;;3.60;;
19509;SDS011;9896;42.486;26.506;2024-02-04T00:58:04;9.23;;;5.50;;
19509;SDS011;9896;42.486;26.506;2024-02-04T01:00:30;3.33;;;3.00;;
19509;SDS011;9896;42.486;26.506;2024-02-04T01:02:55;6.13;;;3.43;;
19509;SDS011;9896;42.486;26.506;2024-02-04T01:05:21;3.37;;;3.07;;
19509;SDS011;9896;42.486;26.506;2024-02-04T01:07:46;6.50;;;4.50;;
19509;SDS011;9896;42.486;26.506;2024-02-04T01:10:12;15.13;;;5.93;;
19509;SDS011;9896;42.486;26.506;2024-02-04T01:12:38;8.83;;;4.17;;
19509;SDS011;9896;42.486;26.506;2024-02-04T01:15:03;10.13;;;4.83;;
19509;SDS011;9896;42.486;26.506;2024-02-04T01:17:30;12.20;;;6.10;;
19509;SDS011;9896;42.486;26.506;2024-02-04T01:19:56;4.10;;;3.33;;
19509;SDS011;9896;42.486;26.506;2024-02-04T01:22:22;5.03;;;4.13;;
19509;SDS011;9896;42.486;26.506;2024-02-04T01:24:52;3.37;;;2.70;;
19509;SDS011;9896;42.486;26.506;2024-02-04T01:27:18;8.30;;;4.47;;
19509;SDS011;9896;42.486;26.506;2024-02-04T01:29:43;7.87;;;4.30;;
19509;SDS011;9896;42.486;26.506;2024-02-04T01:32:09;13.03;;;4.13;;
19509;SDS011;9896;42.486;26.506;2024-02-04T01:34:35;7.73;;;5.40;;
19509;SDS011;9896;42.486;26.506;2024-02-04T01:37:00;7.77;;;3.03;;
19509;SDS011;9896;42.486;26.506;2024-02-04T01:39:26;3.60;;;2.17;;
19509;SDS011;9896;42.486;26.506;2024-02-04T01:41:51;12.40;;;5.53;;
19509;SDS011;9896;42.486;26.506;2024-02-04T01:44:17;10.27;;;4.90;;
19509;SDS011;9896;42.486;26.506;2024-02-04T01:46:44;10.23;;;4.43;;
19509;SDS011;9896;42.486;26.506;2024-02-04T01:49:10;8.00;;;5.60;;
19509;SDS011;9896;42.486;26.506;2024-02-04T01:51:36;9.87;;;5.97;;
19509;SDS011;9896;42.486;26.506;2024-02-04T01:54:01;10.03;;;6.23;;
19509;SDS011;9896;42.486;26.506;2024-02-04T01:56:28;10.67;;;6.10;;
19509;SDS011;9896;42.486;26.506;2024-02-04T01:58:55;9.43;;;5.47;;
19509;SDS011;9896;42.486;26.506;2024-02-04T02:01:21;7.53;;;4.97;;
19509;SDS011;9896;42.486;26.506;2024-02-04T02:03:48;10.33;;;6.73;;
19509;SDS011;9896;42.486;26.506;2024-02-04T02:06:15;10.57;;;6.57;;
19509;SDS011;9896;42.486;26.506;2024-02-04T02:08:41;4.17;;;3.27;;
19509;SDS011;9896;42.486;26.506;2024-02-04T02:11:18;9.83;;;6.23;;
19509;SDS011;9896;42.486;26.506;2024-02-04T02:13:52;4.83;;;3.83;;
19509;SDS011;9896;42.486;26.506;2024-02-04T02:16:26;7.20;;;5.20;;
19509;SDS011;9896;42.486;26.506;2024-02-04T02:18:57;10.97;;;6.20;;
19509;SDS011;9896;42.486;26.506;2024-02-04T02:21:52;9.00;;;6.47;;
19509;SDS011;9896;42.486;26.506;2024-02-04T02:24:40;10.23;;;6.30;;
19509;SDS011;9896;42.486;26.506;2024-02-04T02:27:07;7.20;;;4.30;;
19509;SDS011;9896;42.486;26.506;2024-02-04T02:29:33;5.30;;;3.93;;
19509;SDS011;9896;42.486;26.506;2024-02-04T02:31:59;3.60;;;3.27;;
19509;SDS011;9896;42.486;26.506;2024-02-04T02:34:26;8.43;;;6.33;;
19509;SDS011;9896;42.486;26.506;2024-02-04T02:42:36;9.53;;;6.03;;
19509;SDS011;9896;42.486;26.506;2024-02-04T02:45:04;6.33;;;3.43;;
19509;SDS011;9896;42.486;26.506;2024-02-04T02:47:31;9.60;;;4.63;;
19509;SDS011;9896;42.486;26.506;2024-02-04T02:49:58;7.53;;;3.73;;
19509;SDS011;9896;42.486;26.506;2024-02-04T02:52:25;7.87;;;3.77;;
19509;SDS011;9896;42.486;26.506;2024-02-04T02:54:51;4.17;;;3.40;;
19509;SDS011;9896;42.486;26.506;2024-02-04T02:57:16;4.27;;;3.53;;
19509;SDS011;9896;42.486;26.506;2024-02-04T02:59:42;5.40;;;3.40;;
19509;SDS011;9896;42.486;26.506;2024-02-04T03:02:08;1.33;;;1.23;;
19509;SDS011;9896;42.486;26.506;2024-02-04T03:04:33;2.60;;;2.40;;
19509;SDS011;9896;42.486;26.506;2024-02-04T03:06:59;3.20;;;2.83;;
19509;SDS011;9896;42.486;26.506;2024-02-04T03:09:25;2.50;;;2.30;;
19509;SDS011;9896;42.486;26.506;2024-02-04T03:11:50;2.90;;;2.70;;
19509;SDS011;9896;42.486;26.506;2024-02-04T03:14:16;3.17;;;2.97;;
19509;SDS011;9896;42.486;26.506;2024-02-04T03:16:45;2.97;;;2.77;;
19509;SDS011;9896;42.486;26.506;2024-02-04T03:19:11;4.20;;;3.27;;
19509;SDS011;9896;42.486;26.506;2024-02-04T03:21:36;2.97;;;2.30;;
19509;SDS011;9896;42.486;26.506;2024-02-04T03:24:02;4.30;;;2.20;;
19509;SDS011;9896;42.486;26.506;2024-02-04T03:26:27;8.00;;;5.07;;
19509;SDS011;9896;42.486;26.506;2024-02-04T03:28:53;10.83;;;5.43;;
19509;SDS011;9896;42.486;26.506;2024-02-04T03:31:19;7.10;;;4.40;;
19509;SDS011;9896;42.486;26.506;2024-02-04T03:33:46;5.97;;;4.80;;
19509;SDS011;9896;42.486;26.506;2024-02-04T03:36:12;10.77;;;6.77;;
19509;SDS011;9896;42.486;26.506;2024-02-04T03:38:39;10.37;;;5.77;;
19509;SDS011;9896;42.486;26.506;2024-02-04T03:41:05;9.53;;;4.27;;
19509;SDS011;9896;42.486;26.506;2024-02-04T03:43:30;4.83;;;2.93;;
19509;SDS011;9896;42.486;26.506;2024-02-04T03:45:56;6.37;;;3.33;;
19509;SDS011;9896;42.486;26.506;2024-02-04T03:48:22;12.03;;;5.83;;
19509;SDS011;9896;42.486;26.506;2024-02-04T03:50:47;5.50;;;4.23;;
19509;SDS011;9896;42.486;26.506;2024-02-04T03:53:13;5.10;;;2.50;;
19509;SDS011;9896;42.486;26.506;2024-02-04T03:55:39;11.53;;;5.73;;
19509;SDS011;9896;42.486;26.506;2024-02-04T03:58:04;3.40;;;2.97;;
19509;SDS011;9896;42.486;26.506;2024-02-04T04:00:30;6.60;;;4.70;;
19509;SDS011;9896;42.486;26.506;2024-02-04T04:02:56;5.40;;;3.43;;
19509;SDS011;9896;42.486;26.506;2024-02-04T04:05:21;6.00;;;3.17;;
19509;SDS011;9896;42.486;26.506;2024-02-04T04:07:47;13.50;;;7.00;;
19509;SDS011;9896;42.486;26.506;2024-02-04T04:10:13;2.90;;;2.70;;
19509;SDS011;9896;42.486;26.506;2024-02-04T04:12:38;9.43;;;3.97;;
19509;SDS011;9896;42.486;26.506;2024-02-04T04:15:04;6.90;;;4.60;;
19509;SDS011;9896;42.486;26.506;2024-02-04T04:17:30;11.23;;;7.80;;
19509;SDS011;9896;42.486;26.506;2024-02-04T04:19:56;8.40;;;5.70;;
19509;SDS011;9896;42.486;26.506;2024-02-04T04:22:21;13.87;;;8.63;;
19509;SDS011;9896;42.486;26.506;2024-02-04T04:24:47;10.30;;;6.40;;
19509;SDS011;9896;42.486;26.506;2024-02-04T04:27:12;13.93;;;8.13;;
19509;SDS011;9896;42.486;26.506;2024-02-04T04:29:38;11.63;;;6.47;;
19509;SDS011;9896;42.486;26.506;2024-02-04T04:32:04;9.10;;;7.23;;
19509;SDS011;9896;42.486;26.506;2024-02-04T04:34:30;9.80;;;5.97;;
19509;SDS011;9896;42.486;26.506;2024-02-04T04:36:55;5.27;;;3.67;;
19509;SDS011;9896;42.486;26.506;2024-02-04T04:39:21;6.60;;;5.53;;
19509;SDS011;9896;42.486;26.506;2024-02-04T04:41:46;4.60;;;3.47;;
19509;SDS011;9896;42.486;26.506;2024-02-04T04:44:12;3.50;;;2.77;;
19509;SDS011;9896;42.486;26.506;2024-02-04T04:46:38;13.77;;;5.20;;
19509;SDS011;9896;42.486;26.506;2024-02-04T04:49:06;3.07;;;2.77;;
19509;SDS011;9896;42.486;26.506;2024-02-04T04:51:32;8.43;;;6.37;;
19509;SDS011;9896;42.486;26.506;2024-02-04T04:53:58;7.97;;;5.17;;
19509;SDS011;9896;42.486;26.506;2024-02-04T04:56:24;8.33;;;6.07;;
19509;SDS011;9896;42.486;26.506;2024-02-04T04:58:49;9.77;;;5.90;;
19509;SDS011;9896;42.486;26.506;2024-02-04T05:01:15;5.33;;;4.00;;
19509;SDS011;9896;42.486;26.506;2024-02-04T05:03:41;10.50;;;6.60;;
19509;SDS011;9896;42.486;26.506;2024-02-04T05:06:07;5.47;;;4.53;;
19509;SDS011;9896;42.486;26.506;2024-02-04T05:08:32;9.77;;;7.73;;
19509;SDS011;9896;42.486;26.506;2024-02-04T05:10:58;13.30;;;5.17;;
19509;SDS011;9896;42.486;26.506;2024-02-04T05:13:24;11.67;;;7.17;;
19509;SDS011;9896;42.486;26.506;2024-02-04T05:15:49;8.27;;;6.23;;
19509;SDS011;9896;42.486;26.506;2024-02-04T05:18:15;4.13;;;3.10;;
19509;SDS011;9896;42.486;26.506;2024-02-04T05:20:40;7.23;;;5.00;;
19509;SDS011;9896;42.486;26.506;2024-02-04T05:23:08;3.70;;;3.20;;
19509;SDS011;9896;42.486;26.506;2024-02-04T05:25:34;8.40;;;5.83;;
19509;SDS011;9896;42.486;26.506;2024-02-04T05:28:00;9.10;;;5.30;;
19509;SDS011;9896;42.486;26.506;2024-02-04T05:30:26;9.50;;;5.40;;
19509;SDS011;9896;42.486;26.506;2024-02-04T05:32:51;14.30;;;6.63;;
19509;SDS011;9896;42.486;26.506;2024-02-04T05:35:17;11.50;;;7.20;;
19509;SDS011;9896;42.486;26.506;2024-02-04T05:37:42;9.50;;;5.83;;
19509;SDS011;9896;42.486;26.506;2024-02-04T05:40:08;6.20;;;4.77;;
19509;SDS011;9896;42.486;26.506;2024-02-04T05:42:34;15.23;;;7.27;;
19509;SDS011;9896;42.486;26.506;2024-02-04T05:45:02;6.67;;;5.97;;
19509;SDS011;9896;42.486;26.506;2024-02-04T05:47:28;3.97;;;3.43;;
19509;SDS011;9896;42.486;26.506;2024-02-04T05:49:54;6.63;;;4.20;;
19509;SDS011;9896;42.486;26.506;2024-02-04T05:52:20;9.93;;;5.37;;
19509;SDS011;9896;42.486;26.506;2024-02-04T05:54:45;3.17;;;2.93;;
19509;SDS011;9896;42.486;26.506;2024-02-04T05:57:11;2.77;;;2.50;;
19509;SDS011;9896;42.486;26.506;2024-02-04T05:59:37;12.83;;;6.70;;
19509;SDS011;9896;42.486;26.506;2024-02-04T06:02:03;10.67;;;4.73;;
19509;SDS011;9896;42.486;26.506;2024-02-04T06:04:29;12.57;;;6.50;;
19509;SDS011;9896;42.486;26.506;2024-02-04T06:06:55;3.97;;;3.27;;
19509;SDS011;9896;42.486;26.506;2024-02-04T06:09:21;4.97;;;3.27;;
19509;SDS011;9896;42.486;26.506;2024-02-04T06:11:46;12.20;;;6.87;;
19509;SDS011;9896;42.486;26.506;2024-02-04T06:14:12;8.20;;;5.70;;
19509;SDS011;9896;42.486;26.506;2024-02-04T06:16:38;12.30;;;6.10;;
19509;SDS011;9896;42.486;26.506;2024-02-04T06:19:03;12.43;;;6.20;;
19509;SDS011;9896;42.486;26.506;2024-02-04T06:21:29;10.43;;;6.97;;
19509;SDS011;9896;42.486;26.506;2024-02-04T06:23:55;8.00;;;6.03;;
19509;SDS011;9896;42.486;26.506;2024-02-04T06:26:20;14.07;;;8.20;;
19509;SDS011;9896;42.486;26.506;2024-02-04T06:28:46;10.23;;;6.47;;
19509;SDS011;9896;42.486;26.506;2024-02-04T06:31:13;11.57;;;8.43;;
19509;SDS011;9896;42.486;26.506;2024-02-04T06:33:39;12.70;;;8.10;;
19509;SDS011;9896;42.486;26.506;2024-02-04T06:36:08;14.57;;;7.20;;
19509;SDS011;9896;42.486;26.506;2024-02-04T06:38:35;12.73;;;7.63;;
19509;SDS011;9896;42.486;26.506;2024-02-04T06:41:01;9.67;;;6.30;;
19509;SDS011;9896;42.486;26.506;2024-02-04T06:43:26;9.50;;;6.33;;
19509;SDS011;9896;42.486;26.506;2024-02-04T06:45:52;9.97;;;6.63;;
19509;SDS011;9896;42.486;26.506;2024-02-04T06:48:20;12.10;;;7.83;;
19509;SDS011;9896;42.486;26.506;2024-02-04T06:50:46;10.43;;;5.83;;
19509;SDS011;9896;42.486;26.506;2024-02-04T06:53:13;13.20;;;7.57;;
19509;SDS011;9896;42.486;26.506;2024-02-04T06:55:39;11.43;;;5.20;;
19509;SDS011;9896;42.486;26.506;2024-02-04T06:58:05;5.63;;;5.30;;
19509;SDS011;9896;42.486;26.506;2024-02-04T07:00:31;8.20;;;6.10;;
19509;SDS011;9896;42.486;26.506;2024-02-04T07:02:56;8.47;;;5.60;;
19509;SDS011;9896;42.486;26.506;2024-02-04T07:05:22;11.57;;;6.20;;
19509;SDS011;9896;42.486;26.506;2024-02-04T07:07:48;16.23;;;6.50;;
19509;SDS011;9896;42.486;26.506;2024-02-04T07:10:15;6.93;;;4.13;;
19509;SDS011;9896;42.486;26.506;2024-02-04T07:12:42;2.00;;;1.90;;
19509;SDS011;9896;42.486;26.506;2024-02-04T07:15:08;11.17;;;5.73;;
19509;SDS011;9896;42.486;26.506;2024-02-04T07:17:34;13.43;;;6.73;;
19509;SDS011;9896;42.486;26.506;2024-02-04T07:20:00;9.00;;;6.17;;
19509;SDS011;9896;42.486;26.506;2024-02-04T07:22:26;7.17;;;5.00;;
19509;SDS011;9896;42.486;26.506;2024-02-04T07:24:52;6.50;;;3.63;;
19509;SDS011;9896;42.486;26.506;2024-02-04T07:27:18;7.67;;;5.20;;
19509;SDS011;9896;42.486;26.506;2024-02-04T07:29:43;11.67;;;5.87;;
19509;SDS011;9896;42.486;26.506;2024-02-04T07:32:09;11.77;;;6.43;;
19509;SDS011;9896;42.486;26.506;2024-02-04T07:34:34;10.57;;;6.13;;
19509;SDS011;9896;42.486;26.506;2024-02-04T07:37:00;8.73;;;4.57;;
19509;SDS011;9896;42.486;26.506;2024-02-04T07:39:26;5.20;;;3.27;;
19509;SDS011;9896;42.486;26.506;2024-02-04T07:41:51;5.40;;;2.93;;
19509;SDS011;9896;42.486;26.506;2024-02-04T07:44:19;7.20;;;4.40;;
19509;SDS011;9896;42.486;26.506;2024-02-04T07:46:44;7.07;;;4.83;;
19509;SDS011;9896;42.486;26.506;2024-02-04T07:49:10;6.50;;;4.83;;
19509;SDS011;9896;42.486;26.506;2024-02-04T07:51:36;9.40;;;5.60;;
19509;SDS011;9896;42.486;26.506;2024-02-04T07:54:02;10.20;;;5.07;;
19509;SDS011;9896;42.486;26.506;2024-02-04T07:56:28;5.67;;;4.23;;
19509;SDS011;9896;42.486;26.506;2024-02-04T07:58:54;7.23;;;3.73;;
19509;SDS011;9896;42.486;26.506;2024-02-04T08:01:19;8.37;;;5.40;;
19509;SDS011;9896;42.486;26.506;2024-02-04T08:03:45;14.97;;;5.93;;
19509;SDS011;9896;42.486;26.506;2024-02-04T08:06:12;9.03;;;6.77;;
19509;SDS011;9896;42.486;26.506;2024-02-04T08:08:37;12.17;;;6.57;;
19509;SDS011;9896;42.486;26.506;2024-02-04T08:11:03;12.77;;;7.07;;
19509;SDS011;9896;42.486;26.506;2024-02-04T08:13:29;12.67;;;7.17;;
19509;SDS011;9896;42.486;26.506;2024-02-04T08:15:55;7.07;;;5.07;;
19509;SDS011;9896;42.486;26.506;2024-02-04T08:18:20;11.63;;;6.10;;
19509;SDS011;9896;42.486;26.506;2024-02-04T08:20:46;5.83;;;4.60;;
19509;SDS011;9896;42.486;26.506;2024-02-04T08:23:11;6.13;;;4.20;;
19509;SDS011;9896;42.486;26.506;2024-02-04T08:25:37;3.63;;;3.33;;
19509;SDS011;9896;42.486;26.506;2024-02-04T08:28:03;19.80;;;6.27;;
19509;SDS011;9896;42.486;26.506;2024-02-04T08:30:29;19.17;;;5.87;;
19509;SDS011;9896;42.486;26.506;2024-02-04T08:32:54;5.97;;;4.47;;
19509;SDS011;9896;42.486;26.506;2024-02-04T08:35:20;10.50;;;6.90;;
19509;SDS011;9896;42.486;26.506;2024-02-04T08:37:46;12.43;;;6.97;;
19509;SDS011;9896;42.486;26.506;2024-02-04T08:40:11;9.33;;;5.57;;
19509;SDS011;9896;42.486;26.506;2024-02-04T08:42:37;18.37;;;7.80;;
19509;SDS011;9896;42.486;26.506;2024-02-04T08:45:02;12.90;;;7.00;;
19509;SDS011;9896;42.486;26.506;2024-02-04T08:47:28;16.33;;;6.77;;
19509;SDS011;9896;42.486;26.506;2024-02-04T08:49:54;5.17;;;3.60;;
19509;SDS011;9896;42.486;26.506;2024-02-04T08:52:20;3.73;;;3.30;;
19509;SDS011;9896;42.486;26.506;2024-02-04T08:54:45;3.03;;;2.83;;
19509;SDS011;9896;42.486;26.506;2024-02-04T08:57:11;8.33;;;7.50;;
19509;SDS011;9896;42.486;26.506;2024-02-04T08:59:37;6.73;;;4.57;;
19509;SDS011;9896;42.486;26.506;2024-02-04T09:02:02;2.50;;;2.30;;
19509;SDS011;9896;42.486;26.506;2024-02-04T09:04:28;8.57;;;5.13;;
19509;SDS011;9896;42.486;26.506;2024-02-04T09:06:53;10.13;;;6.37;;
19509;SDS011;9896;42.486;26.506;2024-02-04T09:09:19;14.97;;;6.13;;
19509;SDS011;9896;42.486;26.506;2024-02-04T09:11:45;18.90;;;8.13;;
19509;SDS011;9896;42.486;26.506;2024-02-04T09:14:10;11.33;;;7.17;;
19509;SDS011;9896;42.486;26.506;2024-02-04T09:16:39;13.03;;;6.83;;
19509;SDS011;9896;42.486;26.506;2024-02-04T09:19:05;12.33;;;6.50;;
19509;SDS011;9896;42.486;26.506;2024-02-04T09:21:30;13.20;;;7.10;;
19509;SDS011;9896;42.486;26.506;2024-02-04T09:23:56;2.53;;;1.17;;
19509;SDS011;9896;42.486;26.506;2024-02-04T09:26:22;1.90;;;1.53;;
19509;SDS011;9896;42.486;26.506;2024-02-04T09:28:48;2.10;;;2.00;;
19509;SDS011;9896;42.486;26.506;2024-02-04T09:31:13;4.00;;;3.50;;
19509;SDS011;9896;42.486;26.506;2024-02-04T09:33:39;13.43;;;6.00;;
19509;SDS011;9896;42.486;26.506;2024-02-04T09:36:05;6.93;;;4.30;;
19509;SDS011;9896;42.486;26.506;2024-02-04T09:38:31;7.17;;;2.47;;
19509;SDS011;9896;42.486;26.506;2024-02-04T09:40:57;3.00;;;2.73;;
19509;SDS011;9896;42.486;26.506;2024-02-04T09:43:23;5.97;;;3.33;;
19509;SDS011;9896;42.486;26.506;2024-02-04T09:45:49;2.53;;;2.27;;
19509;SDS011;9896;42.486;26.506;2024-02-04T09:48:17;3.43;;;3.17;;
19509;SDS011;9896;42.486;26.506;2024-02-04T09:50:45;4.63;;;1.70;;
19509;SDS011;9896;42.486;26.506;2024-02-04T09:53:11;3.03;;;2.67;;
19509;SDS011;9896;42.486;26.506;2024-02-04T09:55:39;6.33;;;3.03;;
19509;SDS011;9896;42.486;26.506;2024-02-04T09:58:07;3.40;;;1.97;;
19509;SDS011;9896;42.486;26.506;2024-02-04T10:00:33;5.13;;;3.13;;
19509;SDS011;9896;42.486;26.506;2024-02-04T10:02:59;4.03;;;2.40;;
19509;SDS011;9896;42.486;26.506;2024-02-04T10:05:26;2.67;;;2.30;;
19509;SDS011;9896;42.486;26.506;2024-02-04T10:07:52;3.80;;;3.13;;
19509;SDS011;9896;42.486;26.506;2024-02-04T10:10:17;2.83;;;2.57;;
19509;SDS011;9896;42.486;26.506;2024-02-04T10:12:43;4.33;;;3.10;;
19509;SDS011;9896;42.486;26.506;2024-02-04T10:15:09;1.77;;;1.37;;
19509;SDS011;9896;42.486;26.506;2024-02-04T10:17:36;2.40;;;2.20;;
19509;SDS011;9896;42.486;26.506;2024-02-04T10:20:02;2.03;;;1.93;;
19509;SDS011;9896;42.486;26.506;2024-02-04T10:22:28;3.40;;;2.30;;
19509;SDS011;9896;42.486;26.506;2024-02-04T10:24:54;7.17;;;3.33;;
19509;SDS011;9896;42.486;26.506;2024-02-04T10:27:30;6.70;;;4.00;;
19509;SDS011;9896;42.486;26.506;2024-02-04T10:29:56;3.97;;;2.90;;
19509;SDS011;9896;42.486;26.506;2024-02-04T10:32:25;2.50;;;2.07;;
19509;SDS011;9896;42.486;26.506;2024-02-04T10:34:51;5.43;;;2.90;;
19509;SDS011;9896;42.486;26.506;2024-02-04T10:37:16;1.73;;;1.63;;
19509;SDS011;9896;42.486;26.506;2024-02-04T10:39:42;7.80;;;2.60;;
19509;SDS011;9896;42.486;26.506;2024-02-04T10:42:08;4.20;;;2.10;;
19509;SDS011;9896;42.486;26.506;2024-02-04T10:44:35;2.50;;;2.33;;
19509;SDS011;9896;42.486;26.506;2024-02-04T10:47:05;2.37;;;2.07;;
19509;SDS011;9896;42.486;26.506;2024-02-04T10:49:33;1.47;;;1.37;;
19509;SDS011;9896;42.486;26.506;2024-02-04T10:51:59;3.83;;;3.03;;
19509;SDS011;9896;42.486;26.506;2024-02-04T10:54:29;3.50;;;2.70;;
19509;SDS011;9896;42.486;26.506;2024-02-04T10:56:55;3.37;;;2.60;;
19509;SDS011;9896;42.486;26.506;2024-02-04T10:59:23;2.20;;;2.00;;
19509;SDS011;9896;42.486;26.506;2024-02-04T11:01:55;1.60;;;1.50;;
19509;SDS011;9896;42.486;26.506;2024-02-04T11:04:22;1.20;;;1.10;;
19509;SDS011;9896;42.486;26.506;2024-02-04T11:06:48;3.73;;;2.90;;
19509;SDS011;9896;42.486;26.506;2024-02-04T11:09:16;2.70;;;2.20;;
19509;SDS011;9896;42.486;26.506;2024-02-04T11:11:42;2.70;;;1.90;;
19509;SDS011;9896;42.486;26.506;2024-02-04T11:14:10;1.70;;;1.60;;
19509;SDS011;9896;42.486;26.506;2024-02-04T11:16:55;3.20;;;1.60;;
19509;SDS011;9896;42.486;26.506;2024-02-04T11:19:47;3.70;;;2.33;;
19509;SDS011;9896;42.486;26.506;2024-02-04T11:25:36;2.90;;;2.17;;
19509;SDS011;9896;42.486;26.506;2024-02-04T11:28:07;2.20;;;2.00;;
19509;SDS011;9896;42.486;26.506;2024-02-04T11:30:34;1.33;;;1.23;;
19509;SDS011;9896;42.486;26.506;2024-02-04T11:33:01;4.50;;;2.53;;
19509;SDS011;9896;42.486;26.506;2024-02-04T11:35:30;1.93;;;1.67;;
19509;SDS011;9896;42.486;26.506;2024-02-04T11:37:59;1.73;;;1.63;;
19509;SDS011;9896;42.486;26.506;2024-02-04T11:40:29;1.57;;;1.47;;
19509;SDS011;9896;42.486;26.506;2024-02-04T11:43:06;2.80;;;0.93;;
19509;SDS011;9896;42.486;26.506;2024-02-04T11:45:32;6.03;;;2.17;;
19509;SDS011;9896;42.486;26.506;2024-02-04T11:48:05;1.13;;;1.03;;
19509;SDS011;9896;42.486;26.506;2024-02-04T11:50:32;3.37;;;2.30;;
19509;SDS011;9896;42.486;26.506;2024-02-04T11:53:02;2.53;;;2.33;;
19509;SDS011;9896;42.486;26.506;2024-02-04T11:55:28;4.60;;;3.83;;
19509;SDS011;9896;42.486;26.506;2024-02-04T11:57:54;4.07;;;2.67;;
19509;SDS011;9896;42.486;26.506;2024-02-04T12:00:20;4.73;;;2.37;;
19509;SDS011;9896;42.486;26.506;2024-02-04T12:02:46;1.53;;;1.43;;
19509;SDS011;9896;42.486;26.506;2024-02-04T12:05:12;1.93;;;1.57;;
19509;SDS011;9896;42.486;26.506;2024-02-04T12:07:38;1.00;;;1.00;;
19509;SDS011;9896;42.486;26.506;2024-02-04T12:10:05;5.13;;;1.57;;
19509;SDS011;9896;42.486;26.506;2024-02-04T12:12:32;1.23;;;1.13;;
19509;SDS011;9896;42.486;26.506;2024-02-04T12:14:58;2.10;;;1.63;;
19509;SDS011;9896;42.486;26.506;2024-02-04T12:17:25;1.93;;;1.60;;
19509;SDS011;9896;42.486;26.506;2024-02-04T12:19:51;1.70;;;1.60;;
19509;SDS011;9896;42.486;26.506;2024-02-04T12:22:17;1.70;;;1.60;;
19509;SDS011;9896;42.486;26.506;2024-02-04T12:24:42;2.20;;;2.03;;
19509;SDS011;9896;42.486;26.506;2024-02-04T12:27:08;2.43;;;2.27;;
19509;SDS011;9896;42.486;26.506;2024-02-04T12:29:34;19.20;;;3.20;;
19509;SDS011;9896;42.486;26.506;2024-02-04T12:32:00;1.40;;;1.30;;
19509;SDS011;9896;42.486;26.506;2024-02-04T12:34:26;3.93;;;2.23;;
19509;SDS011;9896;42.486;26.506;2024-02-04T12:36:58;2.73;;;1.80;;
19509;SDS011;9896;42.486;26.506;2024-02-04T12:39:28;2.57;;;2.33;;
19509;SDS011;9896;42.486;26.506;2024-02-04T12:41:57;3.13;;;2.03;;
19509;SDS011;9896;42.486;26.506;2024-02-04T12:44:23;1.10;;;0.80;;
19509;SDS011;9896;42.486;26.506;2024-02-04T12:46:52;1.00;;;1.00;;
19509;SDS011;9896;42.486;26.506;2024-02-04T12:49:21;3.23;;;2.93;;
19509;SDS011;9896;42.486;26.506;2024-02-04T12:51:47;4.77;;;3.40;;
19509;SDS011;9896;42.486;26.506;2024-02-04T12:54:13;3.83;;;2.17;;
19509;SDS011;9896;42.486;26.506;2024-02-04T12:56:39;5.63;;;4.23;;
19509;SDS011;9896;42.486;26.506;2024-02-04T13:01:52;6.20;;;3.60;;
19509;SDS011;9896;42.486;26.506;2024-02-04T13:04:19;13.50;;;8.23;;
19509;SDS011;9896;42.486;26.506;2024-02-04T13:06:45;18.10;;;7.27;;
19509;SDS011;9896;42.486;26.506;2024-02-04T13:09:11;15.43;;;8.17;;
19509;SDS011;9896;42.486;26.506;2024-02-04T13:11:41;10.53;;;5.57;;
19509;SDS011;9896;42.486;26.506;2024-02-04T13:14:07;14.53;;;7.90;;
19509;SDS011;9896;42.486;26.506;2024-02-04T13:16:33;9.27;;;5.43;;
19509;SDS011;9896;42.486;26.506;2024-02-04T13:19:03;6.17;;;4.03;;
19509;SDS011;9896;42.486;26.506;2024-02-04T13:21:29;1.43;;;1.33;;
19509;SDS011;9896;42.486;26.506;2024-02-04T13:23:55;4.03;;;3.60;;
19509;SDS011;9896;42.486;26.506;2024-02-04T13:26:20;3.03;;;2.53;;
19509;SDS011;9896;42.486;26.506;2024-02-04T13:28:46;2.47;;;2.27;;
19509;SDS011;9896;42.486;26.506;2024-02-04T13:31:12;3.70;;;2.60;;
19509;SDS011;9896;42.486;26.506;2024-02-04T13:33:38;1.40;;;1.33;;
19509;SDS011;9896;42.486;26.506;2024-02-04T13:36:05;1.03;;;1.03;;
19509;SDS011;9896;42.486;26.506;2024-02-04T13:38:34;2.30;;;2.07;;
19509;SDS011;9896;42.486;26.506;2024-02-04T13:41:01;2.03;;;1.90;;
19509;SDS011;9896;42.486;26.506;2024-02-04T13:43:27;3.07;;;2.30;;
19509;SDS011;9896;42.486;26.506;2024-02-04T13:45:52;1.43;;;1.30;;
19509;SDS011;9896;42.486;26.506;2024-02-04T13:48:18;4.93;;;2.97;;
19509;SDS011;9896;42.486;26.506;2024-02-04T13:50:45;14.57;;;6.03;;
19509;SDS011;9896;42.486;26.506;2024-02-04T13:53:11;7.40;;;4.57;;
19509;SDS011;9896;42.486;26.506;2024-02-04T13:55:37;18.63;;;9.20;;
19509;SDS011;9896;42.486;26.506;2024-02-04T13:58:04;9.60;;;4.03;;
19509;SDS011;9896;42.486;26.506;2024-02-04T14:00:29;18.17;;;11.87;;
19509;SDS011;9896;42.486;26.506;2024-02-04T14:02:55;33.47;;;20.17;;
19509;SDS011;9896;42.486;26.506;2024-02-04T14:05:20;8.00;;;6.10;;
19509;SDS011;9896;42.486;26.506;2024-02-04T14:07:46;3.30;;;3.00;;
19509;SDS011;9896;42.486;26.506;2024-02-04T14:10:11;6.17;;;4.53;;
19509;SDS011;9896;42.486;26.506;2024-02-04T14:12:39;0.60;;;0.60;;
19509;SDS011;9896;42.486;26.506;2024-02-04T14:15:06;1.67;;;1.57;;
19509;SDS011;9896;42.486;26.506;2024-02-04T14:17:32;3.40;;;2.73;;
19509;SDS011;9896;42.486;26.506;2024-02-04T14:20:02;2.33;;;1.73;;
19509;SDS011;9896;42.486;26.506;2024-02-04T14:22:29;1.63;;;1.53;;
19509;SDS011;9896;42.486;26.506;2024-02-04T14:24:56;1.60;;;1.40;;
19509;SDS011;9896;42.486;26.506;2024-02-04T14:27:22;1.90;;;1.70;;
19509;SDS011;9896;42.486;26.506;2024-02-04T14:29:49;7.33;;;4.13;;
19509;SDS011;9896;42.486;26.506;2024-02-04T14:32:17;5.17;;;3.60;;
19509;SDS011;9896;42.486;26.506;2024-02-04T14:34:44;9.93;;;3.10;;
19509;SDS011;9896;42.486;26.506;2024-02-04T14:37:09;2.40;;;2.20;;
19509;SDS011;9896;42.486;26.506;2024-02-04T14:39:36;1.07;;;0.90;;
19509;SDS011;9896;42.486;26.506;2024-02-04T14:42:01;3.10;;;2.67;;
19509;SDS011;9896;42.486;26.506;2024-02-04T14:44:27;6.10;;;4.13;;
19509;SDS011;9896;42.486;26.506;2024-02-04T14:46:53;1.00;;;0.97;;
19509;SDS011;9896;42.486;26.506;2024-02-04T14:49:19;2.00;;;1.00;;
19509;SDS011;9896;42.486;26.506;2024-02-04T14:51:45;1.10;;;1.00;;
19509;SDS011;9896;42.486;26.506;2024-02-04T14:54:10;2.30;;;0.63;;